sensor_id;sensor_type;location;lat;lon;timestamp;P1;durP1;ratioP1;P2;durP2;ratioP2
27839;SDS011;15207;42.182;24.308;2022-12-13T00:02:18;5.90;;;2.75;;
27839;SDS011;15207;42.182;24.308;2022-12-13T00:04:43;3.40;;;3.10;;
27839;SDS011;15207;42.182;24.308;2022-12-13T00:07:09;3.80;;;3.15;;
27839;SDS011;15207;42.182;24.308;2022-12-13T00:12:00;5.60;;;3.65;;
27839;SDS011;15207;42.182;24.308;2022-12-13T00:16:51;6.80;;;4.00;;
27839;SDS011;15207;42.182;24.308;2022-12-13T00:19:16;4.15;;;3.75;;
27839;SDS011;15207;42.182;24.308;2022-12-13T00:21:43;4.50;;;3.60;;
27839;SDS011;15207;42.182;24.308;2022-12-13T00:24:08;4.63;;;4.00;;
27839;SDS011;15207;42.182;24.308;2022-12-13T00:26:34;4.00;;;3.60;;
27839;SDS011;15207;42.182;24.308;2022-12-13T00:29:00;5.35;;;4.05;;
27839;SDS011;15207;42.182;24.308;2022-12-13T00:31:28;4.73;;;3.50;;
27839;SDS011;15207;42.182;24.308;2022-12-13T00:33:57;5.60;;;4.25;;
27839;SDS011;15207;42.182;24.308;2022-12-13T00:36:23;7.80;;;4.20;;
27839;SDS011;15207;42.182;24.308;2022-12-13T00:38:49;5.60;;;4.33;;
27839;SDS011;15207;42.182;24.308;2022-12-13T00:41:25;4.77;;;3.83;;
27839;SDS011;15207;42.182;24.308;2022-12-13T00:43:52;8.20;;;4.50;;
27839;SDS011;15207;42.182;24.308;2022-12-13T00:46:18;6.00;;;4.40;;
27839;SDS011;15207;42.182;24.308;2022-12-13T00:48:51;6.10;;;4.10;;
27839;SDS011;15207;42.182;24.308;2022-12-13T00:53:47;4.30;;;3.70;;
27839;SDS011;15207;42.182;24.308;2022-12-13T00:56:15;5.40;;;3.90;;
27839;SDS011;15207;42.182;24.308;2022-12-13T00:58:43;4.35;;;3.75;;
27839;SDS011;15207;42.182;24.308;2022-12-13T01:01:10;5.20;;;3.90;;
27839;SDS011;15207;42.182;24.308;2022-12-13T01:03:38;5.90;;;3.55;;
27839;SDS011;15207;42.182;24.308;2022-12-13T01:06:12;4.90;;;3.80;;
27839;SDS011;15207;42.182;24.308;2022-12-13T01:08:38;4.20;;;3.50;;
27839;SDS011;15207;42.182;24.308;2022-12-13T01:11:04;4.85;;;3.75;;
27839;SDS011;15207;42.182;24.308;2022-12-13T01:13:30;5.30;;;3.70;;
27839;SDS011;15207;42.182;24.308;2022-12-13T01:15:56;5.55;;;4.28;;
27839;SDS011;15207;42.182;24.308;2022-12-13T01:18:22;6.18;;;4.10;;
27839;SDS011;15207;42.182;24.308;2022-12-13T01:21:00;6.43;;;4.78;;
27839;SDS011;15207;42.182;24.308;2022-12-13T01:23:27;5.90;;;4.20;;
27839;SDS011;15207;42.182;24.308;2022-12-13T01:25:54;5.93;;;4.53;;
27839;SDS011;15207;42.182;24.308;2022-12-13T01:31:01;5.90;;;4.80;;
27839;SDS011;15207;42.182;24.308;2022-12-13T01:33:30;7.55;;;5.00;;
27839;SDS011;15207;42.182;24.308;2022-12-13T01:35:58;6.50;;;4.60;;
27839;SDS011;15207;42.182;24.308;2022-12-13T01:38:25;5.50;;;4.00;;
27839;SDS011;15207;42.182;24.308;2022-12-13T01:40:50;6.30;;;4.90;;
27839;SDS011;15207;42.182;24.308;2022-12-13T01:43:27;6.20;;;4.80;;
27839;SDS011;15207;42.182;24.308;2022-12-13T01:45:54;9.50;;;5.20;;
27839;SDS011;15207;42.182;24.308;2022-12-13T01:48:21;7.30;;;5.00;;
27839;SDS011;15207;42.182;24.308;2022-12-13T01:50:51;8.90;;;4.27;;
27839;SDS011;15207;42.182;24.308;2022-12-13T01:53:24;6.15;;;4.80;;
27839;SDS011;15207;42.182;24.308;2022-12-13T01:55:53;5.75;;;4.72;;
27839;SDS011;15207;42.182;24.308;2022-12-13T01:58:22;6.30;;;5.15;;
27839;SDS011;15207;42.182;24.308;2022-12-13T02:00:48;5.90;;;4.35;;
27839;SDS011;15207;42.182;24.308;2022-12-13T02:03:15;6.80;;;4.80;;
27839;SDS011;15207;42.182;24.308;2022-12-13T02:08:12;6.00;;;4.60;;
27839;SDS011;15207;42.182;24.308;2022-12-13T02:10:39;5.80;;;4.23;;
27839;SDS011;15207;42.182;24.308;2022-12-13T02:15:35;8.85;;;4.15;;
27839;SDS011;15207;42.182;24.308;2022-12-13T02:31:58;5.65;;;4.40;;
27839;SDS011;15207;42.182;24.308;2022-12-13T02:37:20;7.95;;;5.60;;
27839;SDS011;15207;42.182;24.308;2022-12-13T02:39:49;7.20;;;4.60;;
27839;SDS011;15207;42.182;24.308;2022-12-13T02:42:24;6.43;;;4.80;;
27839;SDS011;15207;42.182;24.308;2022-12-13T02:47:39;8.95;;;5.65;;
27839;SDS011;15207;42.182;24.308;2022-12-13T02:50:07;8.30;;;4.70;;
27839;SDS011;15207;42.182;24.308;2022-12-13T02:52:35;5.70;;;4.10;;
27839;SDS011;15207;42.182;24.308;2022-12-13T02:55:07;5.00;;;4.20;;
27839;SDS011;15207;42.182;24.308;2022-12-13T02:57:40;6.05;;;4.45;;
27839;SDS011;15207;42.182;24.308;2022-12-13T03:00:08;4.90;;;3.90;;
27839;SDS011;15207;42.182;24.308;2022-12-13T03:11:05;4.80;;;3.70;;
27839;SDS011;15207;42.182;24.308;2022-12-13T03:18:54;7.20;;;4.30;;
27839;SDS011;15207;42.182;24.308;2022-12-13T03:21:23;5.70;;;4.10;;
27839;SDS011;15207;42.182;24.308;2022-12-13T03:23:49;7.17;;;4.63;;
27839;SDS011;15207;42.182;24.308;2022-12-13T03:26:20;4.60;;;3.85;;
27839;SDS011;15207;42.182;24.308;2022-12-13T03:28:50;5.50;;;4.10;;
27839;SDS011;15207;42.182;24.308;2022-12-13T03:31:16;6.20;;;4.55;;
27839;SDS011;15207;42.182;24.308;2022-12-13T03:36:07;6.80;;;4.45;;
27839;SDS011;15207;42.182;24.308;2022-12-13T03:38:35;6.45;;;4.80;;
27839;SDS011;15207;42.182;24.308;2022-12-13T03:41:02;5.80;;;4.35;;
27839;SDS011;15207;42.182;24.308;2022-12-13T03:43:30;10.30;;;5.05;;
27839;SDS011;15207;42.182;24.308;2022-12-13T03:45:56;5.40;;;4.35;;
27839;SDS011;15207;42.182;24.308;2022-12-13T03:48:21;6.50;;;4.90;;
27839;SDS011;15207;42.182;24.308;2022-12-13T03:50:48;8.40;;;5.60;;
27839;SDS011;15207;42.182;24.308;2022-12-13T03:53:14;7.30;;;5.45;;
27839;SDS011;15207;42.182;24.308;2022-12-13T03:55:40;10.35;;;5.95;;
27839;SDS011;15207;42.182;24.308;2022-12-13T03:58:05;7.63;;;5.37;;
27839;SDS011;15207;42.182;24.308;2022-12-13T04:00:31;6.93;;;5.20;;
27839;SDS011;15207;42.182;24.308;2022-12-13T04:02:57;7.63;;;5.25;;
27839;SDS011;15207;42.182;24.308;2022-12-13T04:05:22;6.80;;;5.20;;
27839;SDS011;15207;42.182;24.308;2022-12-13T04:07:48;6.35;;;4.90;;
27839;SDS011;15207;42.182;24.308;2022-12-13T04:10:13;6.80;;;5.20;;
27839;SDS011;15207;42.182;24.308;2022-12-13T04:12:40;6.10;;;5.00;;
27839;SDS011;15207;42.182;24.308;2022-12-13T04:15:24;7.95;;;5.00;;
27839;SDS011;15207;42.182;24.308;2022-12-13T04:17:50;6.95;;;5.20;;
27839;SDS011;15207;42.182;24.308;2022-12-13T04:20:15;7.80;;;5.05;;
27839;SDS011;15207;42.182;24.308;2022-12-13T04:22:41;6.70;;;4.97;;
27839;SDS011;15207;42.182;24.308;2022-12-13T04:25:06;9.48;;;5.38;;
27839;SDS011;15207;42.182;24.308;2022-12-13T04:27:32;8.90;;;5.10;;
27839;SDS011;15207;42.182;24.308;2022-12-13T04:29:58;8.35;;;5.75;;
27839;SDS011;15207;42.182;24.308;2022-12-13T04:32:23;7.45;;;4.75;;
27839;SDS011;15207;42.182;24.308;2022-12-13T04:34:49;9.50;;;5.30;;
27839;SDS011;15207;42.182;24.308;2022-12-13T04:37:14;6.60;;;4.67;;
27839;SDS011;15207;42.182;24.308;2022-12-13T04:39:40;8.18;;;4.47;;
27839;SDS011;15207;42.182;24.308;2022-12-13T04:42:05;7.40;;;5.40;;
27839;SDS011;15207;42.182;24.308;2022-12-13T04:44:31;8.00;;;5.20;;
27839;SDS011;15207;42.182;24.308;2022-12-13T04:46:57;9.10;;;4.70;;
27839;SDS011;15207;42.182;24.308;2022-12-13T04:49:23;8.10;;;5.50;;
27839;SDS011;15207;42.182;24.308;2022-12-13T04:51:48;11.35;;;4.90;;
27839;SDS011;15207;42.182;24.308;2022-12-13T04:56:39;8.90;;;5.20;;
27839;SDS011;15207;42.182;24.308;2022-12-13T04:59:05;8.80;;;5.20;;
27839;SDS011;15207;42.182;24.308;2022-12-13T05:01:30;9.10;;;5.20;;
27839;SDS011;15207;42.182;24.308;2022-12-13T05:03:56;8.32;;;4.75;;
27839;SDS011;15207;42.182;24.308;2022-12-13T05:06:21;7.43;;;5.23;;
27839;SDS011;15207;42.182;24.308;2022-12-13T05:08:47;7.20;;;4.87;;
27839;SDS011;15207;42.182;24.308;2022-12-13T05:11:13;7.30;;;5.20;;
27839;SDS011;15207;42.182;24.308;2022-12-13T05:13:38;10.10;;;5.00;;
27839;SDS011;15207;42.182;24.308;2022-12-13T05:21:00;9.85;;;5.90;;
27839;SDS011;15207;42.182;24.308;2022-12-13T05:23:30;9.35;;;5.20;;
27839;SDS011;15207;42.182;24.308;2022-12-13T05:25:56;7.33;;;5.40;;
27839;SDS011;15207;42.182;24.308;2022-12-13T05:28:22;8.40;;;5.00;;
27839;SDS011;15207;42.182;24.308;2022-12-13T05:30:50;10.40;;;5.70;;
27839;SDS011;15207;42.182;24.308;2022-12-13T05:33:16;8.10;;;4.95;;
27839;SDS011;15207;42.182;24.308;2022-12-13T05:40:33;11.93;;;5.83;;
27839;SDS011;15207;42.182;24.308;2022-12-13T05:42:59;11.60;;;6.00;;
27839;SDS011;15207;42.182;24.308;2022-12-13T05:45:25;15.90;;;5.40;;
27839;SDS011;15207;42.182;24.308;2022-12-13T05:47:51;19.20;;;6.10;;
27839;SDS011;15207;42.182;24.308;2022-12-13T05:50:17;11.50;;;4.90;;
27839;SDS011;15207;42.182;24.308;2022-12-13T05:52:43;11.10;;;5.20;;
27839;SDS011;15207;42.182;24.308;2022-12-13T05:55:09;16.95;;;6.15;;
27839;SDS011;15207;42.182;24.308;2022-12-13T05:57:35;13.85;;;6.00;;
27839;SDS011;15207;42.182;24.308;2022-12-13T06:00:01;14.70;;;5.65;;
27839;SDS011;15207;42.182;24.308;2022-12-13T06:02:28;10.90;;;5.85;;
27839;SDS011;15207;42.182;24.308;2022-12-13T06:04:54;13.30;;;5.80;;
27839;SDS011;15207;42.182;24.308;2022-12-13T06:09:45;14.60;;;5.70;;
27839;SDS011;15207;42.182;24.308;2022-12-13T06:12:10;13.50;;;6.80;;
27839;SDS011;15207;42.182;24.308;2022-12-13T06:14:36;16.30;;;6.50;;
27839;SDS011;15207;42.182;24.308;2022-12-13T06:17:01;13.20;;;6.10;;
27839;SDS011;15207;42.182;24.308;2022-12-13T06:19:27;11.10;;;6.00;;
27839;SDS011;15207;42.182;24.308;2022-12-13T06:21:53;13.30;;;6.30;;
27839;SDS011;15207;42.182;24.308;2022-12-13T06:24:20;14.95;;;6.70;;
27839;SDS011;15207;42.182;24.308;2022-12-13T06:26:47;16.50;;;7.10;;
27839;SDS011;15207;42.182;24.308;2022-12-13T06:29:14;17.43;;;6.67;;
27839;SDS011;15207;42.182;24.308;2022-12-13T06:31:41;14.75;;;7.05;;
27839;SDS011;15207;42.182;24.308;2022-12-13T06:34:06;15.20;;;6.10;;
27839;SDS011;15207;42.182;24.308;2022-12-13T06:36:32;20.50;;;6.75;;
27839;SDS011;15207;42.182;24.308;2022-12-13T06:39:04;12.30;;;6.50;;
27839;SDS011;15207;42.182;24.308;2022-12-13T06:41:31;11.00;;;5.70;;
27839;SDS011;15207;42.182;24.308;2022-12-13T06:43:58;15.55;;;6.35;;
27839;SDS011;15207;42.182;24.308;2022-12-13T06:46:25;13.90;;;6.80;;
27839;SDS011;15207;42.182;24.308;2022-12-13T06:48:51;9.47;;;5.90;;
27839;SDS011;15207;42.182;24.308;2022-12-13T06:51:17;11.60;;;6.30;;
27839;SDS011;15207;42.182;24.308;2022-12-13T06:53:43;12.95;;;6.70;;
27839;SDS011;15207;42.182;24.308;2022-12-13T06:56:12;16.30;;;7.00;;
27839;SDS011;15207;42.182;24.308;2022-12-13T06:58:39;13.25;;;6.65;;
27839;SDS011;15207;42.182;24.308;2022-12-13T07:01:16;12.00;;;6.70;;
27839;SDS011;15207;42.182;24.308;2022-12-13T07:03:43;11.70;;;6.70;;
27839;SDS011;15207;42.182;24.308;2022-12-13T07:06:16;13.80;;;6.70;;
27839;SDS011;15207;42.182;24.308;2022-12-13T07:08:49;13.50;;;7.10;;
27839;SDS011;15207;42.182;24.308;2022-12-13T07:11:17;21.00;;;8.50;;
27839;SDS011;15207;42.182;24.308;2022-12-13T07:13:46;22.70;;;7.80;;
27839;SDS011;15207;42.182;24.308;2022-12-13T07:16:12;19.05;;;8.50;;
27839;SDS011;15207;42.182;24.308;2022-12-13T07:18:38;20.50;;;7.60;;
27839;SDS011;15207;42.182;24.308;2022-12-13T07:21:04;17.15;;;8.00;;
27839;SDS011;15207;42.182;24.308;2022-12-13T07:23:34;15.20;;;7.30;;
27839;SDS011;15207;42.182;24.308;2022-12-13T07:26:01;13.90;;;7.50;;
27839;SDS011;15207;42.182;24.308;2022-12-13T07:28:27;18.90;;;7.63;;
27839;SDS011;15207;42.182;24.308;2022-12-13T07:30:53;23.65;;;8.00;;
27839;SDS011;15207;42.182;24.308;2022-12-13T07:33:19;15.10;;;7.60;;
27839;SDS011;15207;42.182;24.308;2022-12-13T07:35:45;16.40;;;7.80;;
27839;SDS011;15207;42.182;24.308;2022-12-13T07:38:11;21.50;;;9.40;;
27839;SDS011;15207;42.182;24.308;2022-12-13T07:40:37;29.20;;;9.60;;
27839;SDS011;15207;42.182;24.308;2022-12-13T07:43:04;22.80;;;9.77;;
27839;SDS011;15207;42.182;24.308;2022-12-13T07:45:31;18.55;;;8.30;;
27839;SDS011;15207;42.182;24.308;2022-12-13T07:47:57;17.80;;;8.10;;
27839;SDS011;15207;42.182;24.308;2022-12-13T07:50:27;14.10;;;7.40;;
27839;SDS011;15207;42.182;24.308;2022-12-13T07:52:52;24.70;;;8.70;;
27839;SDS011;15207;42.182;24.308;2022-12-13T07:55:18;13.80;;;7.90;;
27839;SDS011;15207;42.182;24.308;2022-12-13T07:57:45;13.50;;;6.80;;
27839;SDS011;15207;42.182;24.308;2022-12-13T08:00:11;17.10;;;9.25;;
27839;SDS011;15207;42.182;24.308;2022-12-13T08:02:38;11.50;;;7.80;;
27839;SDS011;15207;42.182;24.308;2022-12-13T08:05:05;13.50;;;7.60;;
27839;SDS011;15207;42.182;24.308;2022-12-13T08:07:30;13.65;;;6.45;;
27839;SDS011;15207;42.182;24.308;2022-12-13T08:12:21;19.65;;;6.25;;
27839;SDS011;15207;42.182;24.308;2022-12-13T08:14:47;11.75;;;6.10;;
27839;SDS011;15207;42.182;24.308;2022-12-13T08:17:13;11.50;;;6.85;;
27839;SDS011;15207;42.182;24.308;2022-12-13T08:19:38;17.10;;;7.90;;
27839;SDS011;15207;42.182;24.308;2022-12-13T08:22:04;14.20;;;7.20;;
27839;SDS011;15207;42.182;24.308;2022-12-13T08:24:30;20.50;;;8.00;;
27839;SDS011;15207;42.182;24.308;2022-12-13T08:26:57;10.10;;;6.30;;
27839;SDS011;15207;42.182;24.308;2022-12-13T08:29:27;17.00;;;6.80;;
27839;SDS011;15207;42.182;24.308;2022-12-13T08:31:54;12.50;;;6.70;;
27839;SDS011;15207;42.182;24.308;2022-12-13T08:36:45;34.40;;;7.40;;
27839;SDS011;15207;42.182;24.308;2022-12-13T08:39:11;19.70;;;7.05;;
27839;SDS011;15207;42.182;24.308;2022-12-13T08:41:36;15.50;;;7.20;;
27839;SDS011;15207;42.182;24.308;2022-12-13T08:46:28;19.50;;;8.25;;
27839;SDS011;15207;42.182;24.308;2022-12-13T08:48:53;19.15;;;7.00;;
27839;SDS011;15207;42.182;24.308;2022-12-13T08:51:19;16.60;;;7.30;;
27839;SDS011;15207;42.182;24.308;2022-12-13T08:53:49;14.00;;;7.00;;
27839;SDS011;15207;42.182;24.308;2022-12-13T08:56:16;10.30;;;6.20;;
27839;SDS011;15207;42.182;24.308;2022-12-13T08:58:48;17.10;;;7.30;;
27839;SDS011;15207;42.182;24.308;2022-12-13T09:01:15;13.10;;;7.45;;
27839;SDS011;15207;42.182;24.308;2022-12-13T09:03:41;18.35;;;7.80;;
27839;SDS011;15207;42.182;24.308;2022-12-13T09:06:14;20.15;;;6.55;;
27839;SDS011;15207;42.182;24.308;2022-12-13T09:08:41;12.60;;;6.30;;
27839;SDS011;15207;42.182;24.308;2022-12-13T09:11:09;14.40;;;6.75;;
27839;SDS011;15207;42.182;24.308;2022-12-13T09:13:36;13.95;;;6.05;;
27839;SDS011;15207;42.182;24.308;2022-12-13T09:16:16;13.18;;;6.22;;
27839;SDS011;15207;42.182;24.308;2022-12-13T09:18:44;13.10;;;6.97;;
27839;SDS011;15207;42.182;24.308;2022-12-13T09:21:13;12.40;;;6.40;;
27839;SDS011;15207;42.182;24.308;2022-12-13T09:26:07;16.05;;;6.75;;
27839;SDS011;15207;42.182;24.308;2022-12-13T09:31:06;11.20;;;6.10;;
27839;SDS011;15207;42.182;24.308;2022-12-13T09:33:36;18.10;;;7.07;;
27839;SDS011;15207;42.182;24.308;2022-12-13T09:36:03;13.30;;;6.10;;
27839;SDS011;15207;42.182;24.308;2022-12-13T09:38:30;8.95;;;4.40;;
27839;SDS011;15207;42.182;24.308;2022-12-13T09:40:58;9.50;;;4.60;;
27839;SDS011;15207;42.182;24.308;2022-12-13T09:43:32;11.20;;;5.93;;
27839;SDS011;15207;42.182;24.308;2022-12-13T09:46:00;10.30;;;5.70;;
27839;SDS011;15207;42.182;24.308;2022-12-13T09:48:32;15.10;;;5.80;;
27839;SDS011;15207;42.182;24.308;2022-12-13T09:50:58;10.00;;;5.20;;
27839;SDS011;15207;42.182;24.308;2022-12-13T09:55:52;9.20;;;4.70;;
27839;SDS011;15207;42.182;24.308;2022-12-13T09:58:29;9.25;;;5.50;;
27839;SDS011;15207;42.182;24.308;2022-12-13T10:00:59;6.87;;;4.70;;
27839;SDS011;15207;42.182;24.308;2022-12-13T10:03:25;10.20;;;5.75;;
27839;SDS011;15207;42.182;24.308;2022-12-13T10:05:58;13.10;;;5.40;;
27839;SDS011;15207;42.182;24.308;2022-12-13T10:08:47;9.00;;;5.40;;
27839;SDS011;15207;42.182;24.308;2022-12-13T10:11:18;8.90;;;4.97;;
27839;SDS011;15207;42.182;24.308;2022-12-13T10:13:45;12.35;;;5.85;;
27839;SDS011;15207;42.182;24.308;2022-12-13T10:19:02;9.05;;;5.60;;
27839;SDS011;15207;42.182;24.308;2022-12-13T10:21:41;9.20;;;5.00;;
27839;SDS011;15207;42.182;24.308;2022-12-13T10:26:58;10.25;;;5.45;;
27839;SDS011;15207;42.182;24.308;2022-12-13T10:32:27;8.70;;;4.80;;
27839;SDS011;15207;42.182;24.308;2022-12-13T10:37:25;15.20;;;5.65;;
27839;SDS011;15207;42.182;24.308;2022-12-13T10:39:53;9.65;;;5.25;;
27839;SDS011;15207;42.182;24.308;2022-12-13T10:44:46;9.00;;;5.30;;
27839;SDS011;15207;42.182;24.308;2022-12-13T10:47:20;8.50;;;5.70;;
27839;SDS011;15207;42.182;24.308;2022-12-13T10:49:51;9.85;;;5.80;;
27839;SDS011;15207;42.182;24.308;2022-12-13T10:54:57;10.40;;;6.00;;
27839;SDS011;15207;42.182;24.308;2022-12-13T10:57:28;10.90;;;5.95;;
27839;SDS011;15207;42.182;24.308;2022-12-13T10:59:55;11.60;;;7.00;;
27839;SDS011;15207;42.182;24.308;2022-12-13T11:09:49;11.30;;;7.40;;
27839;SDS011;15207;42.182;24.308;2022-12-13T11:12:17;12.70;;;7.30;;
27839;SDS011;15207;42.182;24.308;2022-12-13T11:17:24;11.45;;;6.60;;
27839;SDS011;15207;42.182;24.308;2022-12-13T11:19:59;10.63;;;6.97;;
27839;SDS011;15207;42.182;24.308;2022-12-13T11:22:32;9.45;;;6.75;;
27839;SDS011;15207;42.182;24.308;2022-12-13T11:25:04;9.50;;;6.00;;
27839;SDS011;15207;42.182;24.308;2022-12-13T11:27:52;8.85;;;5.40;;
27839;SDS011;15207;42.182;24.308;2022-12-13T11:30:21;7.57;;;5.20;;
27839;SDS011;15207;42.182;24.308;2022-12-13T11:41:28;13.80;;;6.90;;
27839;SDS011;15207;42.182;24.308;2022-12-13T11:44:00;9.40;;;6.03;;
27839;SDS011;15207;42.182;24.308;2022-12-13T11:49:02;9.00;;;5.60;;
27839;SDS011;15207;42.182;24.308;2022-12-13T11:51:40;12.65;;;6.00;;
27839;SDS011;15207;42.182;24.308;2022-12-13T11:56:58;8.25;;;5.45;;
27839;SDS011;15207;42.182;24.308;2022-12-13T11:59:40;7.20;;;4.80;;
27839;SDS011;15207;42.182;24.308;2022-12-13T12:02:32;8.90;;;5.00;;
27839;SDS011;15207;42.182;24.308;2022-12-13T12:05:13;8.33;;;5.13;;
27839;SDS011;15207;42.182;24.308;2022-12-13T12:08:03;14.23;;;5.27;;
27839;SDS011;15207;42.182;24.308;2022-12-13T12:10:39;8.65;;;5.55;;
27839;SDS011;15207;42.182;24.308;2022-12-13T12:18:54;10.15;;;5.45;;
27839;SDS011;15207;42.182;24.308;2022-12-13T12:21:40;9.80;;;5.95;;
27839;SDS011;15207;42.182;24.308;2022-12-13T12:24:27;10.75;;;5.35;;
27839;SDS011;15207;42.182;24.308;2022-12-13T12:27:17;8.37;;;6.23;;
27839;SDS011;15207;42.182;24.308;2022-12-13T12:30:30;7.43;;;5.30;;
27839;SDS011;15207;42.182;24.308;2022-12-13T12:33:10;7.80;;;5.00;;
27839;SDS011;15207;42.182;24.308;2022-12-13T12:43:35;7.95;;;4.30;;
27839;SDS011;15207;42.182;24.308;2022-12-13T12:52:03;8.90;;;5.47;;
27839;SDS011;15207;42.182;24.308;2022-12-13T13:00:14;8.90;;;5.15;;
27839;SDS011;15207;42.182;24.308;2022-12-13T13:08:05;8.45;;;5.90;;
27839;SDS011;15207;42.182;24.308;2022-12-13T13:10:54;10.30;;;6.40;;
27839;SDS011;15207;42.182;24.308;2022-12-13T13:13:32;9.40;;;5.90;;
27839;SDS011;15207;42.182;24.308;2022-12-13T13:16:28;8.55;;;5.45;;
27839;SDS011;15207;42.182;24.308;2022-12-13T13:19:43;14.95;;;7.75;;
27839;SDS011;15207;42.182;24.308;2022-12-13T13:21:49;11.67;;;7.27;;
27839;SDS011;15207;42.182;24.308;2022-12-13T13:24:32;10.00;;;6.15;;
27839;SDS011;15207;42.182;24.308;2022-12-13T13:27:19;9.70;;;6.10;;
27839;SDS011;15207;42.182;24.308;2022-12-13T13:29:53;10.33;;;5.83;;
27839;SDS011;15207;42.182;24.308;2022-12-13T13:32:40;9.35;;;5.97;;
27839;SDS011;15207;42.182;24.308;2022-12-13T13:38:01;10.60;;;6.60;;
27839;SDS011;15207;42.182;24.308;2022-12-13T13:40:37;11.55;;;5.90;;
27839;SDS011;15207;42.182;24.308;2022-12-13T13:53:58;14.40;;;7.50;;
27839;SDS011;15207;42.182;24.308;2022-12-13T13:56:44;13.25;;;8.15;;
27839;SDS011;15207;42.182;24.308;2022-12-13T14:02:54;16.05;;;9.55;;
27839;SDS011;15207;42.182;24.308;2022-12-13T14:31:25;47.35;;;23.60;;
27839;SDS011;15207;42.182;24.308;2022-12-13T14:34:03;50.70;;;24.30;;
27839;SDS011;15207;42.182;24.308;2022-12-13T14:36:32;49.20;;;23.90;;
27839;SDS011;15207;42.182;24.308;2022-12-13T14:41:26;45.10;;;23.05;;
27839;SDS011;15207;42.182;24.308;2022-12-13T14:43:54;52.65;;;24.35;;
27839;SDS011;15207;42.182;24.308;2022-12-13T14:46:21;47.85;;;23.15;;
27839;SDS011;15207;42.182;24.308;2022-12-13T14:48:47;41.40;;;21.30;;
27839;SDS011;15207;42.182;24.308;2022-12-13T14:51:30;73.45;;;27.30;;
27839;SDS011;15207;42.182;24.308;2022-12-13T14:53:56;47.90;;;19.30;;
27839;SDS011;15207;42.182;24.308;2022-12-13T14:56:23;41.70;;;15.93;;
27839;SDS011;15207;42.182;24.308;2022-12-13T14:58:53;40.30;;;14.75;;
27839;SDS011;15207;42.182;24.308;2022-12-13T15:01:28;34.42;;;14.88;;
27839;SDS011;15207;42.182;24.308;2022-12-13T15:09:45;26.90;;;12.30;;
27839;SDS011;15207;42.182;24.308;2022-12-13T15:12:15;29.10;;;13.40;;
27839;SDS011;15207;42.182;24.308;2022-12-13T15:14:46;28.20;;;13.80;;
27839;SDS011;15207;42.182;24.308;2022-12-13T15:19:53;34.20;;;13.65;;
27839;SDS011;15207;42.182;24.308;2022-12-13T15:22:19;41.20;;;13.30;;
27839;SDS011;15207;42.182;24.308;2022-12-13T15:24:46;36.50;;;12.80;;
27839;SDS011;15207;42.182;24.308;2022-12-13T15:27:14;23.30;;;10.48;;
27839;SDS011;15207;42.182;24.308;2022-12-13T15:29:42;25.90;;;9.90;;
27839;SDS011;15207;42.182;24.308;2022-12-13T15:32:12;18.35;;;8.90;;
27839;SDS011;15207;42.182;24.308;2022-12-13T15:34:43;19.70;;;8.00;;
27839;SDS011;15207;42.182;24.308;2022-12-13T15:39:37;20.00;;;8.00;;
27839;SDS011;15207;42.182;24.308;2022-12-13T15:42:16;15.60;;;7.10;;
27839;SDS011;15207;42.182;24.308;2022-12-13T15:44:47;15.50;;;7.00;;
27839;SDS011;15207;42.182;24.308;2022-12-13T15:47:21;15.90;;;6.80;;
27839;SDS011;15207;42.182;24.308;2022-12-13T15:49:53;14.40;;;6.80;;
27839;SDS011;15207;42.182;24.308;2022-12-13T15:52:29;16.75;;;6.85;;
27839;SDS011;15207;42.182;24.308;2022-12-13T15:57:30;13.75;;;6.90;;
27839;SDS011;15207;42.182;24.308;2022-12-13T16:00:31;14.30;;;7.00;;
27839;SDS011;15207;42.182;24.308;2022-12-13T16:02:58;14.85;;;6.70;;
27839;SDS011;15207;42.182;24.308;2022-12-13T16:05:51;20.30;;;7.60;;
27839;SDS011;15207;42.182;24.308;2022-12-13T16:08:32;16.90;;;6.95;;
27839;SDS011;15207;42.182;24.308;2022-12-13T16:11:04;15.20;;;6.68;;
27839;SDS011;15207;42.182;24.308;2022-12-13T16:13:33;12.93;;;6.55;;
27839;SDS011;15207;42.182;24.308;2022-12-13T16:18:59;14.10;;;6.70;;
27839;SDS011;15207;42.182;24.308;2022-12-13T16:21:25;9.10;;;6.20;;
27839;SDS011;15207;42.182;24.308;2022-12-13T16:23:52;11.27;;;6.53;;
27839;SDS011;15207;42.182;24.308;2022-12-13T16:26:22;11.50;;;6.20;;
27839;SDS011;15207;42.182;24.308;2022-12-13T16:28:51;9.40;;;5.70;;
27839;SDS011;15207;42.182;24.308;2022-12-13T16:31:23;12.40;;;6.50;;
27839;SDS011;15207;42.182;24.308;2022-12-13T16:33:52;13.00;;;6.60;;
27839;SDS011;15207;42.182;24.308;2022-12-13T16:36:20;13.80;;;7.80;;
27839;SDS011;15207;42.182;24.308;2022-12-13T16:38:47;14.67;;;7.57;;
27839;SDS011;15207;42.182;24.308;2022-12-13T16:41:13;11.90;;;7.15;;
27839;SDS011;15207;42.182;24.308;2022-12-13T16:44:00;13.10;;;6.55;;
27839;SDS011;15207;42.182;24.308;2022-12-13T16:46:28;10.50;;;7.00;;
27839;SDS011;15207;42.182;24.308;2022-12-13T16:48:56;12.30;;;7.50;;
27839;SDS011;15207;42.182;24.308;2022-12-13T16:51:22;12.83;;;7.77;;
27839;SDS011;15207;42.182;24.308;2022-12-13T16:56:14;15.55;;;9.10;;
27839;SDS011;15207;42.182;24.308;2022-12-13T16:58:48;16.80;;;8.80;;
27839;SDS011;15207;42.182;24.308;2022-12-13T17:01:16;15.40;;;9.40;;
27839;SDS011;15207;42.182;24.308;2022-12-13T17:06:11;16.35;;;10.25;;
27839;SDS011;15207;42.182;24.308;2022-12-13T17:08:44;17.17;;;10.47;;
27839;SDS011;15207;42.182;24.308;2022-12-13T17:11:13;24.60;;;14.60;;
27839;SDS011;15207;42.182;24.308;2022-12-13T17:13:41;34.70;;;19.30;;
27839;SDS011;15207;42.182;24.308;2022-12-13T17:16:12;40.00;;;21.60;;
27839;SDS011;15207;42.182;24.308;2022-12-13T17:18:41;50.60;;;23.75;;
27839;SDS011;15207;42.182;24.308;2022-12-13T17:21:11;53.25;;;25.60;;
27839;SDS011;15207;42.182;24.308;2022-12-13T17:23:40;52.90;;;26.40;;
27839;SDS011;15207;42.182;24.308;2022-12-13T17:26:06;52.70;;;26.90;;
27839;SDS011;15207;42.182;24.308;2022-12-13T17:28:36;54.95;;;27.50;;
27839;SDS011;15207;42.182;24.308;2022-12-13T17:33:30;59.40;;;29.45;;
27839;SDS011;15207;42.182;24.308;2022-12-13T17:35:56;64.50;;;30.85;;
27839;SDS011;15207;42.182;24.308;2022-12-13T17:38:24;63.45;;;30.80;;
27839;SDS011;15207;42.182;24.308;2022-12-13T17:40:53;63.37;;;30.10;;
27839;SDS011;15207;42.182;24.308;2022-12-13T17:43:19;68.50;;;33.10;;
27839;SDS011;15207;42.182;24.308;2022-12-13T17:45:46;79.10;;;37.05;;
27839;SDS011;15207;42.182;24.308;2022-12-13T17:48:12;84.80;;;39.80;;
27839;SDS011;15207;42.182;24.308;2022-12-13T17:50:39;82.23;;;36.33;;
27839;SDS011;15207;42.182;24.308;2022-12-13T17:53:05;68.70;;;32.80;;
27839;SDS011;15207;42.182;24.308;2022-12-13T17:55:31;70.70;;;31.20;;
27839;SDS011;15207;42.182;24.308;2022-12-13T17:57:57;91.00;;;35.15;;
27839;SDS011;15207;42.182;24.308;2022-12-13T18:00:24;74.77;;;30.60;;
27839;SDS011;15207;42.182;24.308;2022-12-13T18:02:50;54.27;;;25.40;;
27839;SDS011;15207;42.182;24.308;2022-12-13T18:05:18;36.10;;;18.30;;
27839;SDS011;15207;42.182;24.308;2022-12-13T18:07:44;50.57;;;23.73;;
27839;SDS011;15207;42.182;24.308;2022-12-13T18:10:09;47.10;;;23.63;;
27839;SDS011;15207;42.182;24.308;2022-12-13T18:12:35;43.10;;;21.20;;
27839;SDS011;15207;42.182;24.308;2022-12-13T18:15:01;39.10;;;20.45;;
27839;SDS011;15207;42.182;24.308;2022-12-13T18:17:28;40.40;;;21.50;;
27839;SDS011;15207;42.182;24.308;2022-12-13T18:19:54;45.15;;;20.65;;